sensor_id;sensor_type;location;lat;lon;timestamp;temperature;humidity
68378;DHT22;55322;48.146;11.516;2024-02-16T00:00:17;6.51;88.82
68378;DHT22;55322;48.146;11.516;2024-02-16T00:02:44;6.43;89.07
68378;DHT22;55322;48.146;11.516;2024-02-16T00:05:10;6.33;88.34
68378;DHT22;55322;48.146;11.516;2024-02-16T00:07:37;6.37;89.56
68378;DHT22;55322;48.146;11.516;2024-02-16T00:10:03;6.51;89.60
68378;DHT22;55322;48.146;11.516;2024-02-16T00:12:33;6.70;88.92
68378;DHT22;55322;48.146;11.516;2024-02-16T00:14:59;6.57;88.49
68378;DHT22;55322;48.146;11.516;2024-02-16T00:17:25;6.38;88.52
68378;DHT22;55322;48.146;11.516;2024-02-16T00:19:58;6.03;89.34
68378;DHT22;55322;48.146;11.516;2024-02-16T00:22:24;5.82;90.15
68378;DHT22;55322;48.146;11.516;2024-02-16T00:24:49;5.63;90.92
68378;DHT22;55322;48.146;11.516;2024-02-16T00:27:15;5.51;91.34
68378;DHT22;55322;48.146;11.516;2024-02-16T00:29:41;5.55;91.61
68378;DHT22;55322;48.146;11.516;2024-02-16T00:32:07;5.55;91.54
68378;DHT22;55322;48.146;11.516;2024-02-16T00:34:34;5.76;92.21
68378;DHT22;55322;48.146;11.516;2024-02-16T00:37:00;5.90;91.62
68378;DHT22;55322;48.146;11.516;2024-02-16T00:39:25;5.95;91.36
68378;DHT22;55322;48.146;11.516;2024-02-16T00:41:51;6.12;91.38
68378;DHT22;55322;48.146;11.516;2024-02-16T00:44:17;6.36;90.77
68378;DHT22;55322;48.146;11.516;2024-02-16T00:46:45;6.36;90.18
68378;DHT22;55322;48.146;11.516;2024-02-16T00:49:11;6.20;89.74
68378;DHT22;55322;48.146;11.516;2024-02-16T00:51:39;6.07;89.99
68378;DHT22;55322;48.146;11.516;2024-02-16T00:54:05;5.88;89.95
68378;DHT22;55322;48.146;11.516;2024-02-16T00:56:32;5.66;90.46
68378;DHT22;55322;48.146;11.516;2024-02-16T00:58:57;5.54;91.26
68378;DHT22;55322;48.146;11.516;2024-02-16T01:01:22;5.63;91.73
68378;DHT22;55322;48.146;11.516;2024-02-16T01:03:49;5.60;91.66
68378;DHT22;55322;48.146;11.516;2024-02-16T01:06:17;5.59;91.70
68378;DHT22;55322;48.146;11.516;2024-02-16T01:08:42;5.62;91.90
68378;DHT22;55322;48.146;11.516;2024-02-16T01:11:08;5.68;91.90
68378;DHT22;55322;48.146;11.516;2024-02-16T01:13:33;5.80;92.10
68378;DHT22;55322;48.146;11.516;2024-02-16T01:15:59;5.83;91.88
68378;DHT22;55322;48.146;11.516;2024-02-16T01:18:25;5.99;91.64
68378;DHT22;55322;48.146;11.516;2024-02-16T01:20:51;5.92;91.46
68378;DHT22;55322;48.146;11.516;2024-02-16T01:23:17;5.82;91.45
68378;DHT22;55322;48.146;11.516;2024-02-16T01:25:42;5.73;91.59
68378;DHT22;55322;48.146;11.516;2024-02-16T01:28:07;5.69;91.91
68378;DHT22;55322;48.146;11.516;2024-02-16T01:30:33;5.68;91.96
68378;DHT22;55322;48.146;11.516;2024-02-16T01:32:58;5.65;92.22
68378;DHT22;55322;48.146;11.516;2024-02-16T01:35:24;5.63;92.27
68378;DHT22;55322;48.146;11.516;2024-02-16T01:37:49;5.60;92.39
68378;DHT22;55322;48.146;11.516;2024-02-16T01:40:14;5.66;92.43
68378;DHT22;55322;48.146;11.516;2024-02-16T01:42:43;5.79;92.28
68378;DHT22;55322;48.146;11.516;2024-02-16T01:45:09;5.86;92.06
68378;DHT22;55322;48.146;11.516;2024-02-16T01:47:36;5.89;91.74
68378;DHT22;55322;48.146;11.516;2024-02-16T01:50:02;5.90;91.76
68378;DHT22;55322;48.146;11.516;2024-02-16T01:52:28;5.93;91.83
68378;DHT22;55322;48.146;11.516;2024-02-16T01:54:56;5.92;91.94
68378;DHT22;55322;48.146;11.516;2024-02-16T01:57:22;5.85;91.67
68378;DHT22;55322;48.146;11.516;2024-02-16T01:59:47;5.82;91.69
68378;DHT22;55322;48.146;11.516;2024-02-16T02:02:13;5.78;91.69
68378;DHT22;55322;48.146;11.516;2024-02-16T02:04:38;5.78;91.76
68378;DHT22;55322;48.146;11.516;2024-02-16T02:07:16;5.75;91.89
68378;DHT22;55322;48.146;11.516;2024-02-16T02:09:42;5.75;91.94
68378;DHT22;55322;48.146;11.516;2024-02-16T02:12:08;5.73;92.08
68378;DHT22;55322;48.146;11.516;2024-02-16T02:14:34;5.73;92.01
68378;DHT22;55322;48.146;11.516;2024-02-16T02:16:59;5.86;91.71
68378;DHT22;55322;48.146;11.516;2024-02-16T02:19:26;6.07;91.06
68378;DHT22;55322;48.146;11.516;2024-02-16T02:21:51;6.23;89.73
68378;DHT22;55322;48.146;11.516;2024-02-16T02:24:17;6.37;88.82
68378;DHT22;55322;48.146;11.516;2024-02-16T02:26:42;6.38;88.91
68378;DHT22;55322;48.146;11.516;2024-02-16T02:29:07;6.43;88.60
68378;DHT22;55322;48.146;11.516;2024-02-16T02:31:33;6.44;88.45
68378;DHT22;55322;48.146;11.516;2024-02-16T02:33:58;6.41;88.47
68378;DHT22;55322;48.146;11.516;2024-02-16T02:36:24;6.41;87.90
68378;DHT22;55322;48.146;11.516;2024-02-16T02:38:50;6.43;87.98
68378;DHT22;55322;48.146;11.516;2024-02-16T02:41:16;6.40;88.33
68378;DHT22;55322;48.146;11.516;2024-02-16T02:43:42;6.37;88.45
68378;DHT22;55322;48.146;11.516;2024-02-16T02:46:08;6.33;88.57
68378;DHT22;55322;48.146;11.516;2024-02-16T02:48:33;6.26;88.93
68378;DHT22;55322;48.146;11.516;2024-02-16T02:50:58;6.24;89.23
68378;DHT22;55322;48.146;11.516;2024-02-16T02:53:28;6.20;89.42
68378;DHT22;55322;48.146;11.516;2024-02-16T02:55:53;6.19;89.60
68378;DHT22;55322;48.146;11.516;2024-02-16T02:58:19;6.19;89.66
68378;DHT22;55322;48.146;11.516;2024-02-16T03:00:44;6.17;89.48
68378;DHT22;55322;48.146;11.516;2024-02-16T03:03:10;6.19;89.17
68378;DHT22;55322;48.146;11.516;2024-02-16T03:05:35;6.16;88.99
68378;DHT22;55322;48.146;11.516;2024-02-16T03:08:01;6.17;88.89
68378;DHT22;55322;48.146;11.516;2024-02-16T03:10:27;6.19;88.61
68378;DHT22;55322;48.146;11.516;2024-02-16T03:12:56;6.17;88.50
68378;DHT22;55322;48.146;11.516;2024-02-16T03:15:21;6.14;88.71
68378;DHT22;55322;48.146;11.516;2024-02-16T03:17:47;6.07;88.59
68378;DHT22;55322;48.146;11.516;2024-02-16T03:20:12;6.06;88.59
68378;DHT22;55322;48.146;11.516;2024-02-16T03:22:37;5.96;88.72
68378;DHT22;55322;48.146;11.516;2024-02-16T03:25:03;5.89;88.77
68378;DHT22;55322;48.146;11.516;2024-02-16T03:27:30;5.89;88.88
68378;DHT22;55322;48.146;11.516;2024-02-16T03:29:55;5.86;89.22
68378;DHT22;55322;48.146;11.516;2024-02-16T03:32:21;5.83;89.11
68378;DHT22;55322;48.146;11.516;2024-02-16T03:34:46;5.83;88.25
68378;DHT22;55322;48.146;11.516;2024-02-16T03:37:12;5.80;87.84
68378;DHT22;55322;48.146;11.516;2024-02-16T03:39:37;5.90;87.84
68378;DHT22;55322;48.146;11.516;2024-02-16T03:42:03;5.86;87.26
68378;DHT22;55322;48.146;11.516;2024-02-16T03:44:28;5.88;87.35
68378;DHT22;55322;48.146;11.516;2024-02-16T03:46:54;5.89;87.70
68378;DHT22;55322;48.146;11.516;2024-02-16T03:49:19;5.86;87.98
68378;DHT22;55322;48.146;11.516;2024-02-16T03:51:44;5.83;88.09
68378;DHT22;55322;48.146;11.516;2024-02-16T03:54:11;5.70;89.02
68378;DHT22;55322;48.146;11.516;2024-02-16T03:56:36;5.63;89.20
68378;DHT22;55322;48.146;11.516;2024-02-16T03:59:01;5.59;89.55
68378;DHT22;55322;48.146;11.516;2024-02-16T04:01:28;5.49;89.66
68378;DHT22;55322;48.146;11.516;2024-02-16T04:03:55;5.41;90.03
68378;DHT22;55322;48.146;11.516;2024-02-16T04:06:20;5.41;90.27
68378;DHT22;55322;48.146;11.516;2024-02-16T04:08:46;5.42;90.32
68378;DHT22;55322;48.146;11.516;2024-02-16T04:11:13;5.34;90.18
68378;DHT22;55322;48.146;11.516;2024-02-16T04:13:40;5.37;90.42
68378;DHT22;55322;48.146;11.516;2024-02-16T04:16:06;5.41;90.38
68378;DHT22;55322;48.146;11.516;2024-02-16T04:18:31;5.48;90.14
68378;DHT22;55322;48.146;11.516;2024-02-16T04:20:56;5.55;90.02
68378;DHT22;55322;48.146;11.516;2024-02-16T04:23:22;5.62;90.06
68378;DHT22;55322;48.146;11.516;2024-02-16T04:25:47;5.68;89.49
68378;DHT22;55322;48.146;11.516;2024-02-16T04:28:13;5.73;88.86
68378;DHT22;55322;48.146;11.516;2024-02-16T04:30:39;5.83;88.18
68378;DHT22;55322;48.146;11.516;2024-02-16T04:33:04;5.89;87.62
68378;DHT22;55322;48.146;11.516;2024-02-16T04:35:30;5.89;87.55
68378;DHT22;55322;48.146;11.516;2024-02-16T04:37:55;5.90;87.27
68378;DHT22;55322;48.146;11.516;2024-02-16T04:40:20;5.90;87.51
68378;DHT22;55322;48.146;11.516;2024-02-16T04:42:46;5.92;86.25
68378;DHT22;55322;48.146;11.516;2024-02-16T04:45:12;6.00;86.30
68378;DHT22;55322;48.146;11.516;2024-02-16T04:47:38;6.07;85.72
68378;DHT22;55322;48.146;11.516;2024-02-16T04:50:05;6.07;85.16
68378;DHT22;55322;48.146;11.516;2024-02-16T04:52:36;6.09;85.44
68378;DHT22;55322;48.146;11.516;2024-02-16T04:55:01;6.10;85.95
68378;DHT22;55322;48.146;11.516;2024-02-16T04:57:26;6.12;86.36
68378;DHT22;55322;48.146;11.516;2024-02-16T04:59:52;6.12;86.91
68378;DHT22;55322;48.146;11.516;2024-02-16T05:02:17;6.09;86.88
68378;DHT22;55322;48.146;11.516;2024-02-16T05:04:42;5.99;86.87
68378;DHT22;55322;48.146;11.516;2024-02-16T05:07:08;5.93;87.21
68378;DHT22;55322;48.146;11.516;2024-02-16T05:09:34;5.95;88.00
68378;DHT22;55322;48.146;11.516;2024-02-16T05:11:59;5.95;87.60
68378;DHT22;55322;48.146;11.516;2024-02-16T05:14:25;6.03;87.05
68378;DHT22;55322;48.146;11.516;2024-02-16T05:16:50;6.10;86.70
68378;DHT22;55322;48.146;11.516;2024-02-16T05:19:16;6.12;87.00
68378;DHT22;55322;48.146;11.516;2024-02-16T05:21:41;6.12;86.96
68378;DHT22;55322;48.146;11.516;2024-02-16T05:24:07;6.07;86.22
68378;DHT22;55322;48.146;11.516;2024-02-16T05:26:32;6.14;85.46
68378;DHT22;55322;48.146;11.516;2024-02-16T05:28:57;6.23;85.12
68378;DHT22;55322;48.146;11.516;2024-02-16T05:31:23;6.26;85.81
68378;DHT22;55322;48.146;11.516;2024-02-16T05:33:49;6.27;86.09
68378;DHT22;55322;48.146;11.516;2024-02-16T05:36:18;6.29;86.32
68378;DHT22;55322;48.146;11.516;2024-02-16T05:38:46;6.30;86.18
68378;DHT22;55322;48.146;11.516;2024-02-16T05:41:12;6.29;86.19
68378;DHT22;55322;48.146;11.516;2024-02-16T05:43:37;6.30;86.76
68378;DHT22;55322;48.146;11.516;2024-02-16T05:46:03;6.26;87.16
68378;DHT22;55322;48.146;11.516;2024-02-16T05:48:32;6.20;87.27
68378;DHT22;55322;48.146;11.516;2024-02-16T05:50:59;6.20;87.44
68378;DHT22;55322;48.146;11.516;2024-02-16T05:53:26;6.23;87.29
68378;DHT22;55322;48.146;11.516;2024-02-16T05:55:51;6.19;86.99
68378;DHT22;55322;48.146;11.516;2024-02-16T05:58:17;6.22;87.38
68378;DHT22;55322;48.146;11.516;2024-02-16T06:00:43;6.19;86.67
68378;DHT22;55322;48.146;11.516;2024-02-16T06:03:08;6.22;86.70
68378;DHT22;55322;48.146;11.516;2024-02-16T06:05:33;6.23;87.07
68378;DHT22;55322;48.146;11.516;2024-02-16T06:07:59;6.23;87.19
68378;DHT22;55322;48.146;11.516;2024-02-16T06:10:24;6.27;87.26
68378;DHT22;55322;48.146;11.516;2024-02-16T06:12:50;6.30;87.15
68378;DHT22;55322;48.146;11.516;2024-02-16T06:15:15;6.29;86.87
68378;DHT22;55322;48.146;11.516;2024-02-16T06:17:41;6.30;87.21
68378;DHT22;55322;48.146;11.516;2024-02-16T06:20:07;6.37;86.24
68378;DHT22;55322;48.146;11.516;2024-02-16T06:22:36;6.37;86.81
68378;DHT22;55322;48.146;11.516;2024-02-16T06:25:01;6.37;87.33
68378;DHT22;55322;48.146;11.516;2024-02-16T06:27:27;6.32;87.92
68378;DHT22;55322;48.146;11.516;2024-02-16T06:29:52;6.26;87.94
68378;DHT22;55322;48.146;11.516;2024-02-16T06:32:18;6.26;87.61
68378;DHT22;55322;48.146;11.516;2024-02-16T06:34:43;6.23;87.67
68378;DHT22;55322;48.146;11.516;2024-02-16T06:37:11;6.22;88.04
68378;DHT22;55322;48.146;11.516;2024-02-16T06:39:36;6.20;88.08
68378;DHT22;55322;48.146;11.516;2024-02-16T06:42:01;6.20;88.13
68378;DHT22;55322;48.146;11.516;2024-02-16T06:44:27;6.26;88.50
68378;DHT22;55322;48.146;11.516;2024-02-16T06:46:52;6.27;88.46
68378;DHT22;55322;48.146;11.516;2024-02-16T06:49:18;6.34;88.14
68378;DHT22;55322;48.146;11.516;2024-02-16T06:51:43;6.41;87.81
68378;DHT22;55322;48.146;11.516;2024-02-16T06:54:10;6.45;87.57
68378;DHT22;55322;48.146;11.516;2024-02-16T06:56:36;6.48;87.73
68378;DHT22;55322;48.146;11.516;2024-02-16T06:59:01;6.60;86.87
68378;DHT22;55322;48.146;11.516;2024-02-16T07:01:26;6.65;86.66
68378;DHT22;55322;48.146;11.516;2024-02-16T07:03:55;6.73;87.36
68378;DHT22;55322;48.146;11.516;2024-02-16T07:06:20;6.85;87.58
68378;DHT22;55322;48.146;11.516;2024-02-16T07:08:45;6.95;87.44
68378;DHT22;55322;48.146;11.516;2024-02-16T07:11:11;7.04;87.15
68378;DHT22;55322;48.146;11.516;2024-02-16T07:13:38;7.14;87.01
68378;DHT22;55322;48.146;11.516;2024-02-16T07:16:04;7.23;86.07
68378;DHT22;55322;48.146;11.516;2024-02-16T07:18:32;7.36;85.66
68378;DHT22;55322;48.146;11.516;2024-02-16T07:20:58;7.45;85.14
68378;DHT22;55322;48.146;11.516;2024-02-16T07:23:24;7.50;84.94
68378;DHT22;55322;48.146;11.516;2024-02-16T07:25:49;7.62;84.74
68378;DHT22;55322;48.146;11.516;2024-02-16T07:28:15;7.76;84.67
68378;DHT22;55322;48.146;11.516;2024-02-16T07:30:40;8.08;82.68
68378;DHT22;55322;48.146;11.516;2024-02-16T07:33:07;9.44;79.91
68378;DHT22;55322;48.146;11.516;2024-02-16T07:35:33;9.65;77.42
68378;DHT22;55322;48.146;11.516;2024-02-16T07:38:00;9.39;75.19
68378;DHT22;55322;48.146;11.516;2024-02-16T07:40:26;9.30;75.97
68378;DHT22;55322;48.146;11.516;2024-02-16T07:42:51;9.24;74.20
68378;DHT22;55322;48.146;11.516;2024-02-16T07:45:17;9.22;75.37
68378;DHT22;55322;48.146;11.516;2024-02-16T07:47:42;9.26;73.83
68378;DHT22;55322;48.146;11.516;2024-02-16T07:50:08;9.29;73.74
68378;DHT22;55322;48.146;11.516;2024-02-16T07:52:33;9.24;77.92
68378;DHT22;55322;48.146;11.516;2024-02-16T07:54:59;9.13;76.74
68378;DHT22;55322;48.146;11.516;2024-02-16T07:57:24;9.08;78.38
68378;DHT22;55322;48.146;11.516;2024-02-16T07:59:50;9.10;74.78
68378;DHT22;55322;48.146;11.516;2024-02-16T08:02:16;9.22;77.16
68378;DHT22;55322;48.146;11.516;2024-02-16T08:04:46;9.30;78.33
68378;DHT22;55322;48.146;11.516;2024-02-16T08:07:11;9.37;77.64
68378;DHT22;55322;48.146;11.516;2024-02-16T08:09:37;9.43;79.23
68378;DHT22;55322;48.146;11.516;2024-02-16T08:12:02;9.46;80.10
68378;DHT22;55322;48.146;11.516;2024-02-16T08:14:30;9.53;80.27
68378;DHT22;55322;48.146;11.516;2024-02-16T08:16:57;9.60;78.74
68378;DHT22;55322;48.146;11.516;2024-02-16T08:19:23;9.64;73.21
68378;DHT22;55322;48.146;11.516;2024-02-16T08:21:48;9.77;71.21
68378;DHT22;55322;48.146;11.516;2024-02-16T08:24:13;9.88;71.10
68378;DHT22;55322;48.146;11.516;2024-02-16T08:26:39;9.97;71.63
68378;DHT22;55322;48.146;11.516;2024-02-16T08:29:05;10.11;71.60
68378;DHT22;55322;48.146;11.516;2024-02-16T08:31:30;10.25;69.15
68378;DHT22;55322;48.146;11.516;2024-02-16T08:33:56;10.42;71.44
68378;DHT22;55322;48.146;11.516;2024-02-16T08:36:22;10.59;70.68
68378;DHT22;55322;48.146;11.516;2024-02-16T08:38:53;10.80;68.54
68378;DHT22;55322;48.146;11.516;2024-02-16T08:41:19;11.14;67.54
68378;DHT22;55322;48.146;11.516;2024-02-16T08:43:44;11.44;65.83
68378;DHT22;55322;48.146;11.516;2024-02-16T08:46:09;11.78;65.49
68378;DHT22;55322;48.146;11.516;2024-02-16T08:48:35;12.09;65.20
68378;DHT22;55322;48.146;11.516;2024-02-16T08:51:00;12.15;63.02
68378;DHT22;55322;48.146;11.516;2024-02-16T08:53:26;12.19;63.40
68378;DHT22;55322;48.146;11.516;2024-02-16T08:55:51;12.15;60.94
68378;DHT22;55322;48.146;11.516;2024-02-16T08:58:17;12.18;61.63
68378;DHT22;55322;48.146;11.516;2024-02-16T09:00:43;12.33;62.38
68378;DHT22;55322;48.146;11.516;2024-02-16T09:03:09;12.56;61.19
68378;DHT22;55322;48.146;11.516;2024-02-16T09:05:34;12.62;60.45
68378;DHT22;55322;48.146;11.516;2024-02-16T09:08:00;12.79;61.73
68378;DHT22;55322;48.146;11.516;2024-02-16T09:10:25;12.94;58.27
68378;DHT22;55322;48.146;11.516;2024-02-16T09:12:50;13.10;57.67
68378;DHT22;55322;48.146;11.516;2024-02-16T09:15:17;13.28;59.33
68378;DHT22;55322;48.146;11.516;2024-02-16T09:17:43;13.50;59.30
68378;DHT22;55322;48.146;11.516;2024-02-16T09:20:10;13.59;55.83
68378;DHT22;55322;48.146;11.516;2024-02-16T09:22:35;13.68;57.60
68378;DHT22;55322;48.146;11.516;2024-02-16T09:25:01;13.81;57.11
68378;DHT22;55322;48.146;11.516;2024-02-16T09:27:28;13.78;55.03
68378;DHT22;55322;48.146;11.516;2024-02-16T09:29:53;13.88;54.58
68378;DHT22;55322;48.146;11.516;2024-02-16T09:32:19;13.98;55.86
68378;DHT22;55322;48.146;11.516;2024-02-16T09:34:44;14.06;52.97
68378;DHT22;55322;48.146;11.516;2024-02-16T09:37:09;14.08;53.22
68378;DHT22;55322;48.146;11.516;2024-02-16T09:39:37;14.09;53.94
68378;DHT22;55322;48.146;11.516;2024-02-16T09:42:02;14.20;56.34
68378;DHT22;55322;48.146;11.516;2024-02-16T09:44:28;14.64;53.28
68378;DHT22;55322;48.146;11.516;2024-02-16T09:46:54;15.36;52.20
68378;DHT22;55322;48.146;11.516;2024-02-16T09:49:20;16.61;50.55
68378;DHT22;55322;48.146;11.516;2024-02-16T09:51:46;17.46;45.83
68378;DHT22;55322;48.146;11.516;2024-02-16T09:54:11;18.13;45.85
68378;DHT22;55322;48.146;11.516;2024-02-16T09:56:37;18.27;43.19
68378;DHT22;55322;48.146;11.516;2024-02-16T09:59:02;18.78;43.81
68378;DHT22;55322;48.146;11.516;2024-02-16T10:01:28;19.02;43.36
68378;DHT22;55322;48.146;11.516;2024-02-16T10:04:05;18.76;41.32
68378;DHT22;55322;48.146;11.516;2024-02-16T10:06:31;18.71;42.23
68378;DHT22;55322;48.146;11.516;2024-02-16T10:08:56;19.35;42.08
68378;DHT22;55322;48.146;11.516;2024-02-16T10:11:24;19.91;41.35
68378;DHT22;55322;48.146;11.516;2024-02-16T10:14:00;20.20;38.45
68378;DHT22;55322;48.146;11.516;2024-02-16T10:16:26;20.41;39.86
68378;DHT22;55322;48.146;11.516;2024-02-16T10:18:56;20.37;40.51
68378;DHT22;55322;48.146;11.516;2024-02-16T10:21:28;20.69;41.49
68378;DHT22;55322;48.146;11.516;2024-02-16T10:23:59;21.12;39.53
68378;DHT22;55322;48.146;11.516;2024-02-16T10:26:24;21.32;36.70
68378;DHT22;55322;48.146;11.516;2024-02-16T10:28:53;21.53;39.22
68378;DHT22;55322;48.146;11.516;2024-02-16T10:31:22;21.64;37.53
68378;DHT22;55322;48.146;11.516;2024-02-16T10:33:55;21.73;37.96
68378;DHT22;55322;48.146;11.516;2024-02-16T10:36:22;21.43;36.83
68378;DHT22;55322;48.146;11.516;2024-02-16T10:38:51;21.39;36.28
68378;DHT22;55322;48.146;11.516;2024-02-16T10:41:18;21.60;38.09
68378;DHT22;55322;48.146;11.516;2024-02-16T10:43:47;21.93;35.96
68378;DHT22;55322;48.146;11.516;2024-02-16T10:46:15;21.57;39.03
68378;DHT22;55322;48.146;11.516;2024-02-16T10:48:41;21.66;39.36
68378;DHT22;55322;48.146;11.516;2024-02-16T10:51:08;21.54;36.59
68378;DHT22;55322;48.146;11.516;2024-02-16T10:53:34;21.43;37.48
68378;DHT22;55322;48.146;11.516;2024-02-16T10:56:02;21.54;37.44
68378;DHT22;55322;48.146;11.516;2024-02-16T10:58:28;21.59;34.29
68378;DHT22;55322;48.146;11.516;2024-02-16T11:00:55;22.15;35.63
68378;DHT22;55322;48.146;11.516;2024-02-16T11:03:22;22.62;40.24
68378;DHT22;55322;48.146;11.516;2024-02-16T11:05:51;22.78;33.03
68378;DHT22;55322;48.146;11.516;2024-02-16T11:08:18;23.12;36.11
68378;DHT22;55322;48.146;11.516;2024-02-16T11:11:00;23.45;34.43
68378;DHT22;55322;48.146;11.516;2024-02-16T11:13:27;23.40;37.30
68378;DHT22;55322;48.146;11.516;2024-02-16T11:16:03;23.60;37.07
68378;DHT22;55322;48.146;11.516;2024-02-16T11:18:32;23.74;34.02
68378;DHT22;55322;48.146;11.516;2024-02-16T11:21:02;23.51;34.49
68378;DHT22;55322;48.146;11.516;2024-02-16T11:23:28;23.27;35.86
68378;DHT22;55322;48.146;11.516;2024-02-16T11:25:54;23.05;35.02
68378;DHT22;55322;48.146;11.516;2024-02-16T11:28:26;22.47;37.72
68378;DHT22;55322;48.146;11.516;2024-02-16T11:30:52;22.14;37.69
68378;DHT22;55322;48.146;11.516;2024-02-16T11:33:17;21.84;37.50
68378;DHT22;55322;48.146;11.516;2024-02-16T11:35:52;21.87;37.43
68378;DHT22;55322;48.146;11.516;2024-02-16T11:38:18;21.91;37.16
68378;DHT22;55322;48.146;11.516;2024-02-16T11:40:55;21.86;37.52
68378;DHT22;55322;48.146;11.516;2024-02-16T11:43:21;21.96;37.50
68378;DHT22;55322;48.146;11.516;2024-02-16T11:45:47;21.87;37.95
68378;DHT22;55322;48.146;11.516;2024-02-16T11:48:19;21.91;38.02
68378;DHT22;55322;48.146;11.516;2024-02-16T11:50:46;21.84;40.23
68378;DHT22;55322;48.146;11.516;2024-02-16T11:53:17;21.86;39.99
68378;DHT22;55322;48.146;11.516;2024-02-16T11:55:48;21.83;39.38
68378;DHT22;55322;48.146;11.516;2024-02-16T11:58:18;21.79;39.87
68378;DHT22;55322;48.146;11.516;2024-02-16T12:00:45;21.81;39.65
68378;DHT22;55322;48.146;11.516;2024-02-16T12:03:11;21.77;38.78
68378;DHT22;55322;48.146;11.516;2024-02-16T12:05:37;21.70;41.73
68378;DHT22;55322;48.146;11.516;2024-02-16T12:08:05;21.61;39.84
68378;DHT22;55322;48.146;11.516;2024-02-16T12:10:31;21.03;40.80
68378;DHT22;55322;48.146;11.516;2024-02-16T12:12:58;20.28;43.55
68378;DHT22;55322;48.146;11.516;2024-02-16T12:15:23;19.87;43.63
68378;DHT22;55322;48.146;11.516;2024-02-16T12:17:58;19.81;43.43
68378;DHT22;55322;48.146;11.516;2024-02-16T12:20:25;19.50;44.61
68378;DHT22;55322;48.146;11.516;2024-02-16T12:22:50;19.45;44.58
68378;DHT22;55322;48.146;11.516;2024-02-16T12:25:16;18.88;45.41
68378;DHT22;55322;48.146;11.516;2024-02-16T12:27:42;18.72;47.68
68378;DHT22;55322;48.146;11.516;2024-02-16T12:30:07;18.65;46.69
68378;DHT22;55322;48.146;11.516;2024-02-16T12:32:36;18.69;46.55
68378;DHT22;55322;48.146;11.516;2024-02-16T12:35:01;18.71;46.67
68378;DHT22;55322;48.146;11.516;2024-02-16T12:37:28;18.69;46.82
68378;DHT22;55322;48.146;11.516;2024-02-16T12:39:53;18.81;46.17
68378;DHT22;55322;48.146;11.516;2024-02-16T12:42:20;18.88;46.55
68378;DHT22;55322;48.146;11.516;2024-02-16T12:44:45;18.89;45.69
68378;DHT22;55322;48.146;11.516;2024-02-16T12:47:11;18.95;46.51
68378;DHT22;55322;48.146;11.516;2024-02-16T12:49:36;18.96;47.16
68378;DHT22;55322;48.146;11.516;2024-02-16T12:52:01;19.28;45.66
68378;DHT22;55322;48.146;11.516;2024-02-16T12:54:27;19.33;45.57
68378;DHT22;55322;48.146;11.516;2024-02-16T12:56:53;19.30;43.99
68378;DHT22;55322;48.146;11.516;2024-02-16T12:59:18;19.18;43.44
68378;DHT22;55322;48.146;11.516;2024-02-16T13:01:44;19.02;43.36
68378;DHT22;55322;48.146;11.516;2024-02-16T13:04:09;19.18;43.85
68378;DHT22;55322;48.146;11.516;2024-02-16T13:06:35;19.49;43.49
68378;DHT22;55322;48.146;11.516;2024-02-16T13:09:00;19.67;44.01
68378;DHT22;55322;48.146;11.516;2024-02-16T13:11:27;19.59;43.67
68378;DHT22;55322;48.146;11.516;2024-02-16T13:13:54;19.53;44.30
68378;DHT22;55322;48.146;11.516;2024-02-16T13:16:19;19.42;44.68
68378;DHT22;55322;48.146;11.516;2024-02-16T13:18:46;19.43;44.95
68378;DHT22;55322;48.146;11.516;2024-02-16T13:21:11;19.35;44.90
68378;DHT22;55322;48.146;11.516;2024-02-16T13:23:37;19.48;44.61
68378;DHT22;55322;48.146;11.516;2024-02-16T13:26:02;19.63;45.69
68378;DHT22;55322;48.146;11.516;2024-02-16T13:28:29;19.55;48.28
68378;DHT22;55322;48.146;11.516;2024-02-16T13:30:55;19.49;48.00
68378;DHT22;55322;48.146;11.516;2024-02-16T13:33:20;19.30;46.27
68378;DHT22;55322;48.146;11.516;2024-02-16T13:35:45;18.95;47.38
68378;DHT22;55322;48.146;11.516;2024-02-16T13:38:11;18.78;46.80
68378;DHT22;55322;48.146;11.516;2024-02-16T13:40:39;18.63;47.14
68378;DHT22;55322;48.146;11.516;2024-02-16T13:43:05;18.60;48.43
68378;DHT22;55322;48.146;11.516;2024-02-16T13:45:48;18.40;49.14
68378;DHT22;55322;48.146;11.516;2024-02-16T13:48:14;18.23;48.45
68378;DHT22;55322;48.146;11.516;2024-02-16T13:50:39;18.09;48.47
68378;DHT22;55322;48.146;11.516;2024-02-16T13:53:05;18.00;50.29
68378;DHT22;55322;48.146;11.516;2024-02-16T13:55:30;17.93;50.15
68378;DHT22;55322;48.146;11.516;2024-02-16T13:57:55;17.76;50.29
68378;DHT22;55322;48.146;11.516;2024-02-16T14:00:21;17.43;51.56
68378;DHT22;55322;48.146;11.516;2024-02-16T14:02:46;17.35;51.31
68378;DHT22;55322;48.146;11.516;2024-02-16T14:05:12;17.16;51.65
68378;DHT22;55322;48.146;11.516;2024-02-16T14:07:37;17.07;52.21
68378;DHT22;55322;48.146;11.516;2024-02-16T14:10:03;16.98;53.00
68378;DHT22;55322;48.146;11.516;2024-02-16T14:12:28;17.00;52.25
68378;DHT22;55322;48.146;11.516;2024-02-16T14:14:53;16.89;52.69
68378;DHT22;55322;48.146;11.516;2024-02-16T14:17:19;16.95;53.86
68378;DHT22;55322;48.146;11.516;2024-02-16T14:19:44;16.83;54.05
68378;DHT22;55322;48.146;11.516;2024-02-16T14:22:10;16.77;52.94
68378;DHT22;55322;48.146;11.516;2024-02-16T14:24:37;16.80;52.78
68378;DHT22;55322;48.146;11.516;2024-02-16T14:27:03;16.89;53.31
68378;DHT22;55322;48.146;11.516;2024-02-16T14:29:28;16.87;54.83
68378;DHT22;55322;48.146;11.516;2024-02-16T14:31:54;16.84;53.98
68378;DHT22;55322;48.146;11.516;2024-02-16T14:34:20;16.94;53.89
68378;DHT22;55322;48.146;11.516;2024-02-16T14:36:45;17.07;53.59
68378;DHT22;55322;48.146;11.516;2024-02-16T14:39:11;17.12;52.77
68378;DHT22;55322;48.146;11.516;2024-02-16T14:41:36;17.19;53.19
68378;DHT22;55322;48.146;11.516;2024-02-16T14:44:02;17.22;52.87
68378;DHT22;55322;48.146;11.516;2024-02-16T14:46:28;17.18;53.25
68378;DHT22;55322;48.146;11.516;2024-02-16T14:48:53;17.14;53.82
68378;DHT22;55322;48.146;11.516;2024-02-16T14:51:19;17.08;53.63
68378;DHT22;55322;48.146;11.516;2024-02-16T14:53:45;16.92;53.73
68378;DHT22;55322;48.146;11.516;2024-02-16T14:56:10;16.84;54.37
68378;DHT22;55322;48.146;11.516;2024-02-16T14:58:38;16.68;54.63
68378;DHT22;55322;48.146;11.516;2024-02-16T15:01:04;16.47;56.96
68378;DHT22;55322;48.146;11.516;2024-02-16T15:03:29;16.33;56.64
68378;DHT22;55322;48.146;11.516;2024-02-16T15:05:56;16.26;56.05
68378;DHT22;55322;48.146;11.516;2024-02-16T15:08:21;16.21;56.34
68378;DHT22;55322;48.146;11.516;2024-02-16T15:10:46;16.13;55.80
68378;DHT22;55322;48.146;11.516;2024-02-16T15:13:13;16.05;56.52
68378;DHT22;55322;48.146;11.516;2024-02-16T15:15:38;15.92;56.54
68378;DHT22;55322;48.146;11.516;2024-02-16T15:18:04;15.85;56.57